sensor_id;sensor_type;location;lat;lon;timestamp;P1;durP1;ratioP1;P2;durP2;ratioP2
15502;SDS011;7853;52.186;5.948;2023-04-24T00:03:12;1.87;;;0.98;;
15502;SDS011;7853;52.186;5.948;2023-04-24T00:03:17;1.10;;;1.00;;
15502;SDS011;7853;52.186;5.948;2023-04-24T00:04:17;1.52;;;1.07;;
15502;SDS011;7853;52.186;5.948;2023-04-24T00:05:26;1.23;;;1.04;;
15502;SDS011;7853;52.186;5.948;2023-04-24T00:06:31;0.99;;;0.86;;
15502;SDS011;7853;52.186;5.948;2023-04-24T00:07:33;1.24;;;0.99;;
15502;SDS011;7853;52.186;5.948;2023-04-24T00:08:35;1.59;;;0.98;;
15502;SDS011;7853;52.186;5.948;2023-04-24T00:09:35;1.31;;;1.08;;
15502;SDS011;7853;52.186;5.948;2023-04-24T00:10:35;0.90;;;0.84;;
15502;SDS011;7853;52.186;5.948;2023-04-24T00:11:36;1.24;;;0.94;;
15502;SDS011;7853;52.186;5.948;2023-04-24T00:12:36;1.91;;;1.15;;
15502;SDS011;7853;52.186;5.948;2023-04-24T00:13:36;1.29;;;1.09;;
15502;SDS011;7853;52.186;5.948;2023-04-24T00:14:36;1.33;;;1.08;;
15502;SDS011;7853;52.186;5.948;2023-04-24T00:15:36;1.41;;;1.26;;
15502;SDS011;7853;52.186;5.948;2023-04-24T00:16:35;1.48;;;1.24;;
15502;SDS011;7853;52.186;5.948;2023-04-24T00:17:36;1.47;;;1.05;;
15502;SDS011;7853;52.186;5.948;2023-04-24T00:18:35;1.10;;;0.94;;
15502;SDS011;7853;52.186;5.948;2023-04-24T00:19:35;1.78;;;1.47;;
15502;SDS011;7853;52.186;5.948;2023-04-24T00:20:35;1.41;;;1.20;;
15502;SDS011;7853;52.186;5.948;2023-04-24T00:21:35;2.33;;;1.29;;
15502;SDS011;7853;52.186;5.948;2023-04-24T00:22:35;1.64;;;1.30;;
15502;SDS011;7853;52.186;5.948;2023-04-24T00:23:35;1.72;;;1.24;;
15502;SDS011;7853;52.186;5.948;2023-04-24T00:24:35;1.93;;;1.50;;
15502;SDS011;7853;52.186;5.948;2023-04-24T00:25:35;1.46;;;1.19;;
15502;SDS011;7853;52.186;5.948;2023-04-24T00:26:35;1.62;;;1.31;;
15502;SDS011;7853;52.186;5.948;2023-04-24T00:27:35;1.27;;;1.16;;
15502;SDS011;7853;52.186;5.948;2023-04-24T00:28:35;1.78;;;1.27;;
15502;SDS011;7853;52.186;5.948;2023-04-24T00:29:35;1.68;;;1.20;;
15502;SDS011;7853;52.186;5.948;2023-04-24T00:30:35;2.29;;;1.43;;
15502;SDS011;7853;52.186;5.948;2023-04-24T00:31:35;1.73;;;1.18;;
15502;SDS011;7853;52.186;5.948;2023-04-24T00:32:35;1.69;;;1.41;;
15502;SDS011;7853;52.186;5.948;2023-04-24T00:33:35;1.82;;;1.54;;
15502;SDS011;7853;52.186;5.948;2023-04-24T00:34:35;1.66;;;1.32;;
15502;SDS011;7853;52.186;5.948;2023-04-24T00:35:35;1.64;;;1.18;;
15502;SDS011;7853;52.186;5.948;2023-04-24T00:36:35;1.57;;;1.44;;
15502;SDS011;7853;52.186;5.948;2023-04-24T00:37:35;1.59;;;1.44;;
15502;SDS011;7853;52.186;5.948;2023-04-24T00:38:35;1.91;;;1.47;;
15502;SDS011;7853;52.186;5.948;2023-04-24T00:39:36;1.41;;;1.24;;
15502;SDS011;7853;52.186;5.948;2023-04-24T00:40:35;1.72;;;1.35;;
15502;SDS011;7853;52.186;5.948;2023-04-24T00:41:36;1.13;;;0.98;;
15502;SDS011;7853;52.186;5.948;2023-04-24T00:42:35;1.48;;;1.29;;
15502;SDS011;7853;52.186;5.948;2023-04-24T00:43:35;1.97;;;1.52;;
15502;SDS011;7853;52.186;5.948;2023-04-24T00:44:36;2.00;;;1.38;;
15502;SDS011;7853;52.186;5.948;2023-04-24T00:45:34;1.56;;;1.37;;
15502;SDS011;7853;52.186;5.948;2023-04-24T00:46:35;1.68;;;1.35;;
15502;SDS011;7853;52.186;5.948;2023-04-24T00:47:35;1.34;;;1.08;;
15502;SDS011;7853;52.186;5.948;2023-04-24T00:48:35;1.42;;;1.15;;
15502;SDS011;7853;52.186;5.948;2023-04-24T00:49:35;1.57;;;1.38;;
15502;SDS011;7853;52.186;5.948;2023-04-24T00:50:36;1.25;;;1.16;;
15502;SDS011;7853;52.186;5.948;2023-04-24T00:51:34;1.12;;;0.98;;
15502;SDS011;7853;52.186;5.948;2023-04-24T00:52:34;1.62;;;1.27;;
15502;SDS011;7853;52.186;5.948;2023-04-24T00:53:35;1.60;;;1.37;;
15502;SDS011;7853;52.186;5.948;2023-04-24T00:54:35;1.96;;;1.41;;
15502;SDS011;7853;52.186;5.948;2023-04-24T00:55:35;1.89;;;1.34;;
15502;SDS011;7853;52.186;5.948;2023-04-24T00:56:37;1.85;;;1.55;;
15502;SDS011;7853;52.186;5.948;2023-04-24T00:57:33;1.45;;;1.29;;
15502;SDS011;7853;52.186;5.948;2023-04-24T00:58:34;1.14;;;1.02;;
15502;SDS011;7853;52.186;5.948;2023-04-24T00:59:34;1.40;;;1.20;;
15502;SDS011;7853;52.186;5.948;2023-04-24T01:00:35;1.49;;;1.19;;
15502;SDS011;7853;52.186;5.948;2023-04-24T01:01:35;1.41;;;1.11;;
15502;SDS011;7853;52.186;5.948;2023-04-24T01:02:35;1.69;;;1.45;;
15502;SDS011;7853;52.186;5.948;2023-04-24T01:03:35;1.09;;;0.99;;
15502;SDS011;7853;52.186;5.948;2023-04-24T01:04:35;1.49;;;1.28;;
15502;SDS011;7853;52.186;5.948;2023-04-24T01:05:35;1.61;;;1.23;;
15502;SDS011;7853;52.186;5.948;2023-04-24T01:06:35;1.60;;;1.39;;
15502;SDS011;7853;52.186;5.948;2023-04-24T01:07:35;1.63;;;1.46;;
15502;SDS011;7853;52.186;5.948;2023-04-24T01:08:34;1.34;;;1.21;;
15502;SDS011;7853;52.186;5.948;2023-04-24T01:09:35;1.45;;;1.33;;
15502;SDS011;7853;52.186;5.948;2023-04-24T01:10:35;2.19;;;1.78;;
15502;SDS011;7853;52.186;5.948;2023-04-24T01:11:35;1.73;;;1.45;;
15502;SDS011;7853;52.186;5.948;2023-04-24T01:12:35;1.36;;;1.21;;
15502;SDS011;7853;52.186;5.948;2023-04-24T01:13:35;1.63;;;1.31;;
15502;SDS011;7853;52.186;5.948;2023-04-24T01:14:35;1.58;;;1.28;;
15502;SDS011;7853;52.186;5.948;2023-04-24T01:15:35;2.19;;;1.21;;
15502;SDS011;7853;52.186;5.948;2023-04-24T01:16:35;1.56;;;1.18;;
15502;SDS011;7853;52.186;5.948;2023-04-24T01:17:35;1.52;;;1.37;;
15502;SDS011;7853;52.186;5.948;2023-04-24T01:18:35;2.67;;;1.45;;
15502;SDS011;7853;52.186;5.948;2023-04-24T01:19:35;1.93;;;1.39;;
15502;SDS011;7853;52.186;5.948;2023-04-24T01:20:35;1.98;;;1.45;;
15502;SDS011;7853;52.186;5.948;2023-04-24T01:21:35;1.74;;;1.33;;
15502;SDS011;7853;52.186;5.948;2023-04-24T01:22:35;1.71;;;1.42;;
15502;SDS011;7853;52.186;5.948;2023-04-24T01:23:35;1.69;;;1.31;;
15502;SDS011;7853;52.186;5.948;2023-04-24T01:24:35;1.91;;;1.43;;
15502;SDS011;7853;52.186;5.948;2023-04-24T01:25:35;2.10;;;1.46;;
15502;SDS011;7853;52.186;5.948;2023-04-24T01:26:35;1.62;;;1.28;;
15502;SDS011;7853;52.186;5.948;2023-04-24T01:27:35;1.89;;;1.41;;
15502;SDS011;7853;52.186;5.948;2023-04-24T01:28:37;1.67;;;1.38;;
15502;SDS011;7853;52.186;5.948;2023-04-24T01:29:35;1.67;;;1.36;;
15502;SDS011;7853;52.186;5.948;2023-04-24T01:30:35;1.57;;;1.45;;
15502;SDS011;7853;52.186;5.948;2023-04-24T01:31:35;1.94;;;1.39;;
15502;SDS011;7853;52.186;5.948;2023-04-24T01:32:35;2.10;;;1.67;;
15502;SDS011;7853;52.186;5.948;2023-04-24T01:33:35;1.91;;;1.64;;
15502;SDS011;7853;52.186;5.948;2023-04-24T01:34:35;1.51;;;1.41;;
15502;SDS011;7853;52.186;5.948;2023-04-24T01:35:37;1.88;;;1.72;;
15502;SDS011;7853;52.186;5.948;2023-04-24T01:36:33;1.12;;;1.02;;
15502;SDS011;7853;52.186;5.948;2023-04-24T01:37:34;1.48;;;1.38;;
15502;SDS011;7853;52.186;5.948;2023-04-24T01:38:34;1.79;;;1.66;;
15502;SDS011;7853;52.186;5.948;2023-04-24T01:39:34;1.72;;;1.44;;
15502;SDS011;7853;52.186;5.948;2023-04-24T01:40:34;1.70;;;1.54;;
15502;SDS011;7853;52.186;5.948;2023-04-24T01:41:34;1.73;;;1.59;;
15502;SDS011;7853;52.186;5.948;2023-04-24T01:42:47;1.65;;;1.48;;
15502;SDS011;7853;52.186;5.948;2023-04-24T01:43:28;1.50;;;1.40;;
15502;SDS011;7853;52.186;5.948;2023-04-24T01:44:31;2.53;;;1.53;;
15502;SDS011;7853;52.186;5.948;2023-04-24T01:45:33;2.11;;;1.64;;
15502;SDS011;7853;52.186;5.948;2023-04-24T01:46:34;1.96;;;1.75;;
15502;SDS011;7853;52.186;5.948;2023-04-24T01:47:34;1.74;;;1.52;;
15502;SDS011;7853;52.186;5.948;2023-04-24T01:48:34;1.79;;;1.49;;
15502;SDS011;7853;52.186;5.948;2023-04-24T01:49:35;2.14;;;1.74;;
15502;SDS011;7853;52.186;5.948;2023-04-24T01:50:35;1.82;;;1.72;;
15502;SDS011;7853;52.186;5.948;2023-04-24T01:51:35;1.82;;;1.68;;
15502;SDS011;7853;52.186;5.948;2023-04-24T01:52:35;1.35;;;1.17;;
15502;SDS011;7853;52.186;5.948;2023-04-24T01:53:34;1.90;;;1.69;;
15502;SDS011;7853;52.186;5.948;2023-04-24T01:54:43;2.47;;;1.86;;
15502;SDS011;7853;52.186;5.948;2023-04-24T01:55:30;1.70;;;1.60;;
15502;SDS011;7853;52.186;5.948;2023-04-24T01:56:33;2.08;;;1.88;;
15502;SDS011;7853;52.186;5.948;2023-04-24T01:57:33;1.76;;;1.64;;
15502;SDS011;7853;52.186;5.948;2023-04-24T01:58:34;1.89;;;1.65;;
15502;SDS011;7853;52.186;5.948;2023-04-24T01:59:34;2.20;;;1.62;;
15502;SDS011;7853;52.186;5.948;2023-04-24T02:00:35;1.51;;;1.41;;
15502;SDS011;7853;52.186;5.948;2023-04-24T02:01:35;1.48;;;1.39;;
15502;SDS011;7853;52.186;5.948;2023-04-24T02:02:35;1.41;;;1.31;;
15502;SDS011;7853;52.186;5.948;2023-04-24T02:03:35;1.80;;;1.61;;
15502;SDS011;7853;52.186;5.948;2023-04-24T02:04:35;1.33;;;1.23;;
15502;SDS011;7853;52.186;5.948;2023-04-24T02:05:35;1.38;;;1.26;;
15502;SDS011;7853;52.186;5.948;2023-04-24T02:06:35;1.62;;;1.51;;
15502;SDS011;7853;52.186;5.948;2023-04-24T02:07:35;1.63;;;1.39;;
15502;SDS011;7853;52.186;5.948;2023-04-24T02:08:35;1.44;;;1.34;;
15502;SDS011;7853;52.186;5.948;2023-04-24T02:09:35;1.85;;;1.46;;
15502;SDS011;7853;52.186;5.948;2023-04-24T02:10:35;1.55;;;1.26;;
15502;SDS011;7853;52.186;5.948;2023-04-24T02:11:35;1.98;;;1.41;;
15502;SDS011;7853;52.186;5.948;2023-04-24T02:12:35;1.71;;;1.29;;
15502;SDS011;7853;52.186;5.948;2023-04-24T02:13:34;2.13;;;1.60;;
15502;SDS011;7853;52.186;5.948;2023-04-24T02:14:35;1.56;;;1.46;;
15502;SDS011;7853;52.186;5.948;2023-04-24T02:15:34;1.53;;;1.43;;
15502;SDS011;7853;52.186;5.948;2023-04-24T02:16:35;1.69;;;1.43;;
15502;SDS011;7853;52.186;5.948;2023-04-24T02:17:35;1.57;;;1.46;;
15502;SDS011;7853;52.186;5.948;2023-04-24T02:18:35;1.54;;;1.40;;
15502;SDS011;7853;52.186;5.948;2023-04-24T02:19:35;1.59;;;1.45;;
15502;SDS011;7853;52.186;5.948;2023-04-24T02:20:35;0.97;;;0.90;;
15502;SDS011;7853;52.186;5.948;2023-04-24T02:21:35;1.95;;;1.49;;
15502;SDS011;7853;52.186;5.948;2023-04-24T02:22:35;1.60;;;1.32;;
15502;SDS011;7853;52.186;5.948;2023-04-24T02:23:35;1.55;;;1.45;;
15502;SDS011;7853;52.186;5.948;2023-04-24T02:24:35;1.34;;;1.24;;
15502;SDS011;7853;52.186;5.948;2023-04-24T02:25:35;1.61;;;1.42;;
15502;SDS011;7853;52.186;5.948;2023-04-24T02:26:35;2.11;;;1.72;;
15502;SDS011;7853;52.186;5.948;2023-04-24T02:27:35;1.84;;;1.65;;
15502;SDS011;7853;52.186;5.948;2023-04-24T02:28:35;2.05;;;1.73;;
15502;SDS011;7853;52.186;5.948;2023-04-24T02:29:35;1.84;;;1.70;;
15502;SDS011;7853;52.186;5.948;2023-04-24T02:30:35;1.59;;;1.47;;
15502;SDS011;7853;52.186;5.948;2023-04-24T02:31:35;1.85;;;1.35;;
15502;SDS011;7853;52.186;5.948;2023-04-24T02:32:34;1.70;;;1.58;;
15502;SDS011;7853;52.186;5.948;2023-04-24T02:33:34;1.66;;;1.55;;
15502;SDS011;7853;52.186;5.948;2023-04-24T02:34:35;1.75;;;1.48;;
15502;SDS011;7853;52.186;5.948;2023-04-24T02:35:35;1.80;;;1.58;;
15502;SDS011;7853;52.186;5.948;2023-04-24T02:36:35;1.57;;;1.46;;
15502;SDS011;7853;52.186;5.948;2023-04-24T02:37:35;1.59;;;1.47;;
15502;SDS011;7853;52.186;5.948;2023-04-24T02:38:37;1.57;;;1.46;;
15502;SDS011;7853;52.186;5.948;2023-04-24T02:39:33;1.83;;;1.67;;
15502;SDS011;7853;52.186;5.948;2023-04-24T02:40:36;2.06;;;1.60;;
15502;SDS011;7853;52.186;5.948;2023-04-24T02:41:33;1.74;;;1.63;;
15502;SDS011;7853;52.186;5.948;2023-04-24T02:42:34;1.71;;;1.58;;
15502;SDS011;7853;52.186;5.948;2023-04-24T02:43:34;1.99;;;1.64;;
15502;SDS011;7853;52.186;5.948;2023-04-24T02:44:34;2.06;;;1.59;;
15502;SDS011;7853;52.186;5.948;2023-04-24T02:45:34;1.56;;;1.37;;
15502;SDS011;7853;52.186;5.948;2023-04-24T02:46:34;1.67;;;1.47;;
15502;SDS011;7853;52.186;5.948;2023-04-24T02:47:34;2.02;;;1.68;;
15502;SDS011;7853;52.186;5.948;2023-04-24T02:48:35;1.56;;;1.30;;
15502;SDS011;7853;52.186;5.948;2023-04-24T02:49:35;1.67;;;1.43;;
15502;SDS011;7853;52.186;5.948;2023-04-24T02:50:35;1.94;;;1.73;;
15502;SDS011;7853;52.186;5.948;2023-04-24T02:51:35;1.67;;;1.57;;
15502;SDS011;7853;52.186;5.948;2023-04-24T02:52:35;1.60;;;1.50;;
15502;SDS011;7853;52.186;5.948;2023-04-24T02:53:35;1.48;;;1.37;;
15502;SDS011;7853;52.186;5.948;2023-04-24T02:54:34;1.62;;;1.52;;
15502;SDS011;7853;52.186;5.948;2023-04-24T02:55:34;1.68;;;1.56;;
15502;SDS011;7853;52.186;5.948;2023-04-24T02:56:35;1.70;;;1.54;;
15502;SDS011;7853;52.186;5.948;2023-04-24T02:57:34;1.75;;;1.62;;
15502;SDS011;7853;52.186;5.948;2023-04-24T02:58:35;2.45;;;1.81;;
15502;SDS011;7853;52.186;5.948;2023-04-24T02:59:35;1.90;;;1.66;;
15502;SDS011;7853;52.186;5.948;2023-04-24T03:00:35;2.16;;;1.69;;
15502;SDS011;7853;52.186;5.948;2023-04-24T03:01:35;2.05;;;1.66;;
15502;SDS011;7853;52.186;5.948;2023-04-24T03:02:35;2.02;;;1.68;;
15502;SDS011;7853;52.186;5.948;2023-04-24T03:03:35;1.73;;;1.63;;
15502;SDS011;7853;52.186;5.948;2023-04-24T03:04:35;1.75;;;1.64;;
15502;SDS011;7853;52.186;5.948;2023-04-24T03:05:35;1.71;;;1.49;;
15502;SDS011;7853;52.186;5.948;2023-04-24T03:06:34;1.52;;;1.40;;
15502;SDS011;7853;52.186;5.948;2023-04-24T03:07:35;1.64;;;1.53;;
15502;SDS011;7853;52.186;5.948;2023-04-24T03:08:37;1.72;;;1.55;;
15502;SDS011;7853;52.186;5.948;2023-04-24T03:09:33;1.43;;;1.27;;
15502;SDS011;7853;52.186;5.948;2023-04-24T03:10:34;1.46;;;1.28;;
15502;SDS011;7853;52.186;5.948;2023-04-24T03:11:34;0.97;;;0.92;;
15502;SDS011;7853;52.186;5.948;2023-04-24T03:12:34;1.43;;;1.19;;
15502;SDS011;7853;52.186;5.948;2023-04-24T03:13:34;1.88;;;1.35;;
15502;SDS011;7853;52.186;5.948;2023-04-24T03:14:34;1.66;;;1.47;;
15502;SDS011;7853;52.186;5.948;2023-04-24T03:15:35;1.72;;;1.53;;
15502;SDS011;7853;52.186;5.948;2023-04-24T03:16:35;1.77;;;1.45;;
15502;SDS011;7853;52.186;5.948;2023-04-24T03:17:35;1.60;;;1.33;;
15502;SDS011;7853;52.186;5.948;2023-04-24T03:18:35;1.70;;;1.44;;
15502;SDS011;7853;52.186;5.948;2023-04-24T03:19:35;1.66;;;1.47;;
15502;SDS011;7853;52.186;5.948;2023-04-24T03:20:35;1.81;;;1.13;;
15502;SDS011;7853;52.186;5.948;2023-04-24T03:21:35;1.67;;;1.30;;
15502;SDS011;7853;52.186;5.948;2023-04-24T03:22:35;1.69;;;1.34;;
15502;SDS011;7853;52.186;5.948;2023-04-24T03:23:35;1.35;;;1.26;;
15502;SDS011;7853;52.186;5.948;2023-04-24T03:24:35;1.41;;;1.31;;
15502;SDS011;7853;52.186;5.948;2023-04-24T03:25:35;1.72;;;1.43;;
15502;SDS011;7853;52.186;5.948;2023-04-24T03:26:35;1.68;;;1.49;;
15502;SDS011;7853;52.186;5.948;2023-04-24T03:27:35;1.52;;;1.36;;
15502;SDS011;7853;52.186;5.948;2023-04-24T03:28:35;2.02;;;1.58;;
15502;SDS011;7853;52.186;5.948;2023-04-24T03:29:35;1.94;;;1.60;;
15502;SDS011;7853;52.186;5.948;2023-04-24T03:30:35;1.54;;;1.43;;
15502;SDS011;7853;52.186;5.948;2023-04-24T03:31:35;1.78;;;1.58;;
15502;SDS011;7853;52.186;5.948;2023-04-24T03:32:34;1.73;;;1.46;;
15502;SDS011;7853;52.186;5.948;2023-04-24T03:33:35;1.40;;;1.30;;
15502;SDS011;7853;52.186;5.948;2023-04-24T03:34:35;1.79;;;1.24;;
15502;SDS011;7853;52.186;5.948;2023-04-24T03:35:35;1.34;;;1.19;;
15502;SDS011;7853;52.186;5.948;2023-04-24T03:36:34;1.56;;;1.46;;
15502;SDS011;7853;52.186;5.948;2023-04-24T03:37:35;1.67;;;1.38;;
15502;SDS011;7853;52.186;5.948;2023-04-24T03:38:34;1.81;;;1.23;;
15502;SDS011;7853;52.186;5.948;2023-04-24T03:39:39;1.71;;;1.44;;
15502;SDS011;7853;52.186;5.948;2023-04-24T03:40:32;1.75;;;1.35;;
15502;SDS011;7853;52.186;5.948;2023-04-24T03:41:33;1.32;;;1.18;;
15502;SDS011;7853;52.186;5.948;2023-04-24T03:42:34;1.78;;;1.22;;
15502;SDS011;7853;52.186;5.948;2023-04-24T03:43:34;1.28;;;1.18;;
15502;SDS011;7853;52.186;5.948;2023-04-24T03:44:34;1.46;;;1.09;;
15502;SDS011;7853;52.186;5.948;2023-04-24T03:45:37;1.53;;;1.36;;
15502;SDS011;7853;52.186;5.948;2023-04-24T03:46:35;1.20;;;1.07;;
15502;SDS011;7853;52.186;5.948;2023-04-24T03:47:34;1.42;;;1.17;;
15502;SDS011;7853;52.186;5.948;2023-04-24T03:48:35;1.35;;;0.95;;
15502;SDS011;7853;52.186;5.948;2023-04-24T03:49:35;1.06;;;0.95;;
15502;SDS011;7853;52.186;5.948;2023-04-24T03:50:34;1.02;;;0.92;;
15502;SDS011;7853;52.186;5.948;2023-04-24T03:51:35;1.10;;;1.00;;
15502;SDS011;7853;52.186;5.948;2023-04-24T03:52:35;1.71;;;1.37;;
15502;SDS011;7853;52.186;5.948;2023-04-24T03:53:35;1.52;;;1.31;;
15502;SDS011;7853;52.186;5.948;2023-04-24T03:54:34;1.09;;;1.00;;
15502;SDS011;7853;52.186;5.948;2023-04-24T03:55:35;1.46;;;1.23;;
15502;SDS011;7853;52.186;5.948;2023-04-24T03:56:35;1.29;;;1.18;;
15502;SDS011;7853;52.186;5.948;2023-04-24T03:57:35;1.20;;;1.10;;
15502;SDS011;7853;52.186;5.948;2023-04-24T03:58:34;1.58;;;1.29;;
15502;SDS011;7853;52.186;5.948;2023-04-24T03:59:35;1.53;;;1.35;;
15502;SDS011;7853;52.186;5.948;2023-04-24T04:00:35;1.60;;;1.49;;
15502;SDS011;7853;52.186;5.948;2023-04-24T04:01:35;1.58;;;1.30;;
15502;SDS011;7853;52.186;5.948;2023-04-24T04:02:35;2.07;;;1.48;;
15502;SDS011;7853;52.186;5.948;2023-04-24T04:03:35;1.74;;;1.55;;
15502;SDS011;7853;52.186;5.948;2023-04-24T04:04:35;1.54;;;1.42;;
15502;SDS011;7853;52.186;5.948;2023-04-24T04:05:35;2.06;;;1.46;;
15502;SDS011;7853;52.186;5.948;2023-04-24T04:06:34;1.90;;;1.41;;
15502;SDS011;7853;52.186;5.948;2023-04-24T04:07:35;1.77;;;1.61;;
15502;SDS011;7853;52.186;5.948;2023-04-24T04:08:34;1.50;;;1.38;;
15502;SDS011;7853;52.186;5.948;2023-04-24T04:09:35;1.70;;;1.39;;
15502;SDS011;7853;52.186;5.948;2023-04-24T04:10:35;1.68;;;1.49;;
15502;SDS011;7853;52.186;5.948;2023-04-24T04:11:35;1.54;;;1.44;;
15502;SDS011;7853;52.186;5.948;2023-04-24T04:12:34;2.01;;;1.81;;
15502;SDS011;7853;52.186;5.948;2023-04-24T04:13:35;1.53;;;1.43;;
15502;SDS011;7853;52.186;5.948;2023-04-24T04:14:34;1.62;;;1.50;;
15502;SDS011;7853;52.186;5.948;2023-04-24T04:15:35;1.59;;;1.47;;
15502;SDS011;7853;52.186;5.948;2023-04-24T04:16:34;1.92;;;1.66;;
15502;SDS011;7853;52.186;5.948;2023-04-24T04:17:35;2.00;;;1.53;;
15502;SDS011;7853;52.186;5.948;2023-04-24T04:18:35;1.77;;;1.54;;
15502;SDS011;7853;52.186;5.948;2023-04-24T04:19:35;1.59;;;1.47;;
15502;SDS011;7853;52.186;5.948;2023-04-24T04:20:35;1.86;;;1.63;;
15502;SDS011;7853;52.186;5.948;2023-04-24T04:21:34;1.90;;;1.71;;
15502;SDS011;7853;52.186;5.948;2023-04-24T04:22:35;1.77;;;1.57;;
15502;SDS011;7853;52.186;5.948;2023-04-24T04:23:35;2.00;;;1.59;;
15502;SDS011;7853;52.186;5.948;2023-04-24T04:24:35;1.94;;;1.57;;
15502;SDS011;7853;52.186;5.948;2023-04-24T04:25:34;2.38;;;1.64;;
15502;SDS011;7853;52.186;5.948;2023-04-24T04:26:35;1.71;;;1.51;;
15502;SDS011;7853;52.186;5.948;2023-04-24T04:27:35;2.02;;;1.58;;
15502;SDS011;7853;52.186;5.948;2023-04-24T04:28:35;1.88;;;1.66;;
15502;SDS011;7853;52.186;5.948;2023-04-24T04:29:35;2.20;;;1.71;;
15502;SDS011;7853;52.186;5.948;2023-04-24T04:30:34;1.72;;;1.59;;
15502;SDS011;7853;52.186;5.948;2023-04-24T04:31:35;2.18;;;1.79;;
15502;SDS011;7853;52.186;5.948;2023-04-24T04:32:35;2.62;;;1.76;;
15502;SDS011;7853;52.186;5.948;2023-04-24T04:33:35;2.04;;;1.76;;
15502;SDS011;7853;52.186;5.948;2023-04-24T04:34:35;2.95;;;2.33;;
15502;SDS011;7853;52.186;5.948;2023-04-24T04:35:35;3.32;;;2.21;;
15502;SDS011;7853;52.186;5.948;2023-04-24T04:36:34;4.06;;;2.69;;
15502;SDS011;7853;52.186;5.948;2023-04-24T04:37:35;2.59;;;2.19;;
15502;SDS011;7853;52.186;5.948;2023-04-24T04:38:35;3.72;;;2.67;;
15502;SDS011;7853;52.186;5.948;2023-04-24T04:39:35;3.74;;;2.64;;
15502;SDS011;7853;52.186;5.948;2023-04-24T04:40:35;2.55;;;2.30;;
15502;SDS011;7853;52.186;5.948;2023-04-24T04:41:35;2.63;;;2.17;;
15502;SDS011;7853;52.186;5.948;2023-04-24T04:42:35;2.22;;;1.66;;
15502;SDS011;7853;52.186;5.948;2023-04-24T04:43:35;2.52;;;1.62;;
15502;SDS011;7853;52.186;5.948;2023-04-24T04:44:34;2.33;;;2.01;;
15502;SDS011;7853;52.186;5.948;2023-04-24T04:45:35;1.77;;;1.55;;
15502;SDS011;7853;52.186;5.948;2023-04-24T04:46:35;1.56;;;1.33;;
15502;SDS011;7853;52.186;5.948;2023-04-24T04:47:35;2.00;;;1.65;;
15502;SDS011;7853;52.186;5.948;2023-04-24T04:48:35;2.67;;;1.61;;
15502;SDS011;7853;52.186;5.948;2023-04-24T04:49:35;1.76;;;1.46;;
15502;SDS011;7853;52.186;5.948;2023-04-24T04:50:35;1.99;;;1.38;;
15502;SDS011;7853;52.186;5.948;2023-04-24T04:51:35;1.97;;;1.38;;
15502;SDS011;7853;52.186;5.948;2023-04-24T04:52:35;1.51;;;1.29;;
15502;SDS011;7853;52.186;5.948;2023-04-24T04:53:34;2.21;;;1.76;;
15502;SDS011;7853;52.186;5.948;2023-04-24T04:54:34;1.43;;;1.16;;
15502;SDS011;7853;52.186;5.948;2023-04-24T04:55:35;1.29;;;1.14;;
15502;SDS011;7853;52.186;5.948;2023-04-24T04:56:35;1.62;;;1.22;;
15502;SDS011;7853;52.186;5.948;2023-04-24T04:57:35;2.64;;;1.19;;
15502;SDS011;7853;52.186;5.948;2023-04-24T04:58:35;1.55;;;1.12;;
15502;SDS011;7853;52.186;5.948;2023-04-24T04:59:35;1.54;;;1.15;;
15502;SDS011;7853;52.186;5.948;2023-04-24T05:00:35;2.03;;;1.42;;
15502;SDS011;7853;52.186;5.948;2023-04-24T05:01:35;1.98;;;1.08;;
15502;SDS011;7853;52.186;5.948;2023-04-24T05:02:34;1.43;;;1.14;;
15502;SDS011;7853;52.186;5.948;2023-04-24T05:03:35;1.83;;;1.12;;
15502;SDS011;7853;52.186;5.948;2023-04-24T05:04:35;1.31;;;1.05;;
15502;SDS011;7853;52.186;5.948;2023-04-24T05:05:35;1.54;;;1.03;;
15502;SDS011;7853;52.186;5.948;2023-04-24T05:06:34;1.11;;;0.93;;
15502;SDS011;7853;52.186;5.948;2023-04-24T05:07:35;1.41;;;0.99;;
15502;SDS011;7853;52.186;5.948;2023-04-24T05:08:35;1.51;;;0.97;;
15502;SDS011;7853;52.186;5.948;2023-04-24T05:09:35;1.14;;;0.91;;
15502;SDS011;7853;52.186;5.948;2023-04-24T05:10:35;1.09;;;0.95;;
15502;SDS011;7853;52.186;5.948;2023-04-24T05:11:34;1.12;;;0.96;;
15502;SDS011;7853;52.186;5.948;2023-04-24T05:12:35;1.13;;;0.86;;
15502;SDS011;7853;52.186;5.948;2023-04-24T05:13:35;1.23;;;0.92;;
15502;SDS011;7853;52.186;5.948;2023-04-24T05:14:34;1.45;;;1.02;;
15502;SDS011;7853;52.186;5.948;2023-04-24T05:15:35;1.82;;;0.88;;
15502;SDS011;7853;52.186;5.948;2023-04-24T05:16:35;1.73;;;0.87;;
15502;SDS011;7853;52.186;5.948;2023-04-24T05:17:35;1.08;;;0.81;;
15502;SDS011;7853;52.186;5.948;2023-04-24T05:18:34;0.98;;;0.72;;
15502;SDS011;7853;52.186;5.948;2023-04-24T05:19:35;0.80;;;0.71;;
15502;SDS011;7853;52.186;5.948;2023-04-24T05:20:35;0.81;;;0.74;;
15502;SDS011;7853;52.186;5.948;2023-04-24T05:21:35;1.27;;;0.78;;
15502;SDS011;7853;52.186;5.948;2023-04-24T05:22:34;1.15;;;0.82;;
15502;SDS011;7853;52.186;5.948;2023-04-24T05:23:35;1.31;;;0.94;;
15502;SDS011;7853;52.186;5.948;2023-04-24T05:24:35;1.82;;;0.84;;
15502;SDS011;7853;52.186;5.948;2023-04-24T05:25:35;0.75;;;0.71;;
15502;SDS011;7853;52.186;5.948;2023-04-24T05:26:34;1.13;;;0.72;;
15502;SDS011;7853;52.186;5.948;2023-04-24T05:27:35;0.97;;;0.70;;
15502;SDS011;7853;52.186;5.948;2023-04-24T05:28:35;0.98;;;0.82;;
15502;SDS011;7853;52.186;5.948;2023-04-24T05:29:35;1.11;;;0.70;;
15502;SDS011;7853;52.186;5.948;2023-04-24T05:30:35;0.77;;;0.66;;
15502;SDS011;7853;52.186;5.948;2023-04-24T05:31:35;0.71;;;0.69;;
15502;SDS011;7853;52.186;5.948;2023-04-24T05:32:34;0.82;;;0.68;;
15502;SDS011;7853;52.186;5.948;2023-04-24T05:33:35;0.77;;;0.70;;
15502;SDS011;7853;52.186;5.948;2023-04-24T05:34:35;0.70;;;0.66;;
15502;SDS011;7853;52.186;5.948;2023-04-24T05:35:34;0.67;;;0.64;;
15502;SDS011;7853;52.186;5.948;2023-04-24T05:36:34;0.67;;;0.64;;
15502;SDS011;7853;52.186;5.948;2023-04-24T05:37:34;0.75;;;0.66;;
15502;SDS011;7853;52.186;5.948;2023-04-24T05:38:34;1.25;;;0.80;;
15502;SDS011;7853;52.186;5.948;2023-04-24T05:39:34;0.77;;;0.73;;
15502;SDS011;7853;52.186;5.948;2023-04-24T05:40:35;1.01;;;0.67;;
15502;SDS011;7853;52.186;5.948;2023-04-24T05:41:34;1.67;;;0.82;;
15502;SDS011;7853;52.186;5.948;2023-04-24T05:42:34;0.72;;;0.66;;
15502;SDS011;7853;52.186;5.948;2023-04-24T05:43:35;0.67;;;0.67;;
15502;SDS011;7853;52.186;5.948;2023-04-24T05:44:35;0.81;;;0.70;;
15502;SDS011;7853;52.186;5.948;2023-04-24T05:45:35;0.84;;;0.71;;
15502;SDS011;7853;52.186;5.948;2023-04-24T05:46:35;0.91;;;0.75;;
15502;SDS011;7853;52.186;5.948;2023-04-24T05:47:35;0.82;;;0.73;;
15502;SDS011;7853;52.186;5.948;2023-04-24T05:48:34;0.73;;;0.67;;
15502;SDS011;7853;52.186;5.948;2023-04-24T05:49:35;0.75;;;0.72;;
15502;SDS011;7853;52.186;5.948;2023-04-24T05:50:35;1.63;;;0.89;;
15502;SDS011;7853;52.186;5.948;2023-04-24T05:51:35;0.91;;;0.76;;
15502;SDS011;7853;52.186;5.948;2023-04-24T05:52:35;0.82;;;0.73;;
15502;SDS011;7853;52.186;5.948;2023-04-24T05:53:35;1.00;;;0.73;;
15502;SDS011;7853;52.186;5.948;2023-04-24T05:54:35;1.01;;;0.76;;
15502;SDS011;7853;52.186;5.948;2023-04-24T05:55:35;1.14;;;0.68;;
15502;SDS011;7853;52.186;5.948;2023-04-24T05:56:34;0.90;;;0.67;;
15502;SDS011;7853;52.186;5.948;2023-04-24T05:57:34;0.89;;;0.71;;
15502;SDS011;7853;52.186;5.948;2023-04-24T05:58:35;0.81;;;0.72;;
15502;SDS011;7853;52.186;5.948;2023-04-24T05:59:36;1.33;;;0.69;;
15502;SDS011;7853;52.186;5.948;2023-04-24T06:00:35;1.22;;;0.78;;
15502;SDS011;7853;52.186;5.948;2023-04-24T06:01:35;1.28;;;0.78;;
15502;SDS011;7853;52.186;5.948;2023-04-24T06:02:34;1.45;;;0.86;;
15502;SDS011;7853;52.186;5.948;2023-04-24T06:03:35;0.92;;;0.78;;
15502;SDS011;7853;52.186;5.948;2023-04-24T06:04:35;0.87;;;0.81;;
15502;SDS011;7853;52.186;5.948;2023-04-24T06:05:35;1.01;;;0.80;;
15502;SDS011;7853;52.186;5.948;2023-04-24T06:06:35;1.17;;;0.75;;
15502;SDS011;7853;52.186;5.948;2023-04-24T06:07:34;0.92;;;0.72;;
15502;SDS011;7853;52.186;5.948;2023-04-24T06:08:35;1.08;;;0.78;;